createdAt,value
2019-03-21T00:00:49.674Z,50.10
2019-03-21T00:01:57.834Z,50.76
2019-03-21T00:03:04.410Z,50.36
2019-03-21T00:04:12.504Z,50.29
2019-03-21T00:05:18.200Z,50.42
2019-03-21T00:06:24.496Z,50.41
2019-03-21T00:07:30.524Z,49.83
2019-03-21T00:08:37.179Z,49.57
2019-03-21T00:10:03.373Z,50.05
2019-03-21T00:11:34.156Z,50.47
2019-03-21T00:12:40.179Z,50.79
2019-03-21T00:13:46.214Z,49.94
2019-03-21T00:15:33.334Z,49.42
2019-03-21T00:16:39.507Z,49.75
2019-03-21T00:17:51.986Z,49.44
2019-03-21T00:18:59.634Z,49.45
2019-03-21T00:20:07.120Z,49.83
2019-03-21T00:21:14.025Z,49.37
2019-03-21T00:22:20.894Z,49.50
2019-03-21T00:23:28.347Z,49.41
2019-03-21T00:24:34.581Z,49.64
2019-03-21T00:25:40.690Z,49.83
2019-03-21T00:26:46.221Z,49.31
2019-03-21T00:27:52.001Z,50.26
2019-03-21T00:28:59.027Z,50.51
2019-03-21T00:30:05.764Z,50.16
2019-03-21T00:31:11.582Z,51.05
2019-03-21T00:32:17.641Z,50.81
2019-03-21T00:33:23.419Z,50.91
2019-03-21T00:34:30.256Z,50.45
2019-03-21T00:35:38.523Z,50.87
2019-03-21T00:36:44.137Z,50.43
2019-03-21T00:37:50.030Z,50.50
2019-03-21T00:38:56.166Z,50.37
2019-03-21T00:40:02.240Z,50.30
2019-03-21T00:41:08.572Z,50.53
2019-03-21T00:42:14.356Z,50.60
2019-03-21T00:43:20.735Z,50.31
2019-03-21T00:44:27.122Z,50.40
2019-03-21T00:45:33.516Z,50.54
2019-03-21T00:46:39.634Z,50.71
2019-03-21T00:47:45.617Z,50.78
2019-03-21T00:48:53.434Z,50.27
2019-03-21T00:50:00.373Z,50.29
2019-03-21T00:51:07.199Z,50.52
2019-03-21T00:52:14.053Z,50.41
2019-03-21T00:53:20.086Z,50.73
2019-03-21T00:54:26.165Z,50.48
2019-03-21T00:55:32.869Z,50.37
2019-03-21T00:56:38.683Z,50.11
2019-03-21T00:57:45.058Z,50.20
2019-03-21T00:58:51.760Z,50.42
2019-03-21T00:59:57.959Z,50.77
2019-03-21T01:01:04.120Z,51.05
2019-03-21T01:02:10.170Z,50.98
2019-03-21T01:03:16.388Z,50.15
2019-03-21T01:04:23.826Z,50.67
2019-03-21T01:05:30.163Z,50.19
2019-03-21T01:06:35.930Z,50.45
2019-03-21T01:07:43.153Z,50.52
2019-03-21T01:08:50.112Z,50.25
2019-03-21T01:09:56.683Z,50.16
2019-03-21T01:11:02.771Z,49.89
2019-03-21T01:12:09.512Z,49.77
2019-03-21T01:13:15.692Z,49.64
2019-03-21T01:14:29.340Z,49.56
2019-03-21T01:15:29.260Z,49.67
2019-03-21T01:16:35.810Z,49.83
2019-03-21T01:17:42.181Z,49.55
2019-03-21T01:18:47.776Z,49.89
2019-03-21T01:19:53.943Z,50.12
2019-03-21T01:21:00.686Z,50.28
2019-03-21T01:22:06.705Z,50.05
2019-03-21T01:23:13.104Z,49.93
2019-03-21T01:24:19.402Z,50.09
2019-03-21T01:25:31.546Z,50.46
2019-03-21T01:26:37.689Z,50.62
2019-03-21T01:27:44.615Z,51.48
2019-03-21T01:28:50.389Z,50.53
2019-03-21T01:29:57.267Z,50.77
2019-03-21T01:31:03.815Z,51.55
2019-03-21T01:32:11.018Z,51.64
2019-03-21T01:33:17.715Z,51.13
2019-03-21T01:34:24.186Z,50.45
2019-03-21T01:35:30.222Z,51.17
2019-03-21T01:36:37.349Z,50.34
2019-03-21T01:37:43.273Z,49.96
2019-03-21T01:38:50.966Z,49.92
2019-03-21T01:39:57.704Z,50.09
2019-03-21T01:41:03.762Z,50.38
2019-03-21T01:42:09.485Z,50.19
2019-03-21T01:43:15.317Z,50.72
2019-03-21T01:44:21.895Z,50.57
2019-03-21T01:45:27.964Z,50.47
2019-03-21T01:46:34.067Z,50.43
2019-03-21T01:47:41.049Z,50.62
2019-03-21T01:48:47.157Z,49.94
2019-03-21T01:49:54.479Z,50.43
2019-03-21T01:51:01.010Z,50.79
2019-03-21T01:52:07.071Z,50.15
2019-03-21T01:53:14.349Z,50.12
2019-03-21T01:54:20.361Z,50.52
2019-03-21T01:55:26.368Z,50.60
2019-03-21T01:56:32.600Z,50.25
2019-03-21T01:57:38.450Z,50.04
2019-03-21T01:58:44.783Z,50.54
2019-03-21T01:59:51.794Z,50.17
2019-03-21T02:00:57.845Z,50.00
2019-03-21T02:02:05.511Z,49.91
2019-03-21T02:03:11.308Z,50.26
2019-03-21T02:04:17.359Z,50.44
2019-03-21T02:05:23.130Z,50.55
2019-03-21T02:06:29.232Z,50.27
2019-03-21T02:07:35.824Z,50.14
2019-03-21T02:08:43.247Z,50.29
2019-03-21T02:09:49.008Z,50.97
2019-03-21T02:10:54.754Z,51.19
2019-03-21T02:12:01.398Z,50.79
2019-03-21T02:13:09.071Z,51.54
2019-03-21T02:14:15.861Z,51.88
2019-03-21T02:15:21.687Z,50.75
2019-03-21T02:16:27.431Z,50.45
2019-03-21T02:17:33.748Z,50.69
2019-03-21T02:18:39.743Z,50.61
2019-03-21T02:19:46.718Z,50.43
2019-03-21T02:20:54.166Z,50.60
2019-03-21T02:22:01.045Z,50.62
2019-03-21T02:23:07.946Z,50.22
2019-03-21T02:24:13.470Z,50.30
2019-03-21T02:25:21.621Z,50.58
2019-03-21T02:26:27.180Z,50.54
2019-03-21T02:27:34.308Z,50.51
2019-03-21T02:28:41.520Z,50.31
2019-03-21T02:29:48.157Z,49.88
2019-03-21T02:30:54.017Z,50.01
2019-03-21T02:31:59.962Z,50.12
2019-03-21T02:33:21.640Z,50.11
2019-03-21T02:34:27.446Z,50.39
2019-03-21T02:35:33.572Z,51.18
2019-03-21T02:36:39.355Z,51.07
2019-03-21T02:37:45.105Z,50.44
2019-03-21T02:38:51.680Z,50.99
2019-03-21T02:40:00.217Z,50.30
2019-03-21T02:41:07.206Z,49.65
2019-03-21T02:42:14.197Z,49.64
2019-03-21T02:43:20.818Z,50.03
2019-03-21T02:44:27.343Z,49.98
2019-03-21T02:45:34.186Z,50.30
2019-03-21T02:46:40.786Z,50.07
2019-03-21T02:47:46.529Z,50.20
2019-03-21T02:48:53.470Z,50.87
2019-03-21T02:50:00.629Z,51.45
2019-03-21T02:51:06.721Z,51.28
2019-03-21T02:52:13.276Z,50.91
2019-03-21T02:53:19.598Z,50.30
2019-03-21T02:54:26.217Z,50.09
2019-03-21T02:55:31.955Z,50.05
2019-03-21T02:56:39.747Z,50.08
2019-03-21T02:57:46.211Z,50.03
2019-03-21T02:58:51.991Z,50.69
2019-03-21T02:59:58.867Z,51.30
2019-03-21T03:01:05.557Z,51.15
2019-03-21T03:02:11.970Z,50.08
2019-03-21T03:03:17.533Z,50.21
2019-03-21T03:04:23.860Z,50.20
2019-03-21T03:05:30.710Z,51.00
2019-03-21T03:06:37.258Z,50.83
2019-03-21T03:07:43.294Z,51.49
2019-03-21T03:08:49.591Z,51.34
2019-03-21T03:09:56.533Z,50.71
2019-03-21T03:11:02.261Z,50.52
2019-03-21T03:12:08.049Z,50.62
2019-03-21T03:13:14.702Z,50.49
2019-03-21T03:14:20.812Z,50.57
2019-03-21T03:15:27.879Z,50.50
2019-03-21T03:16:33.484Z,50.76
2019-03-21T03:17:40.227Z,50.51
2019-03-21T03:18:47.154Z,50.10
2019-03-21T03:19:54.907Z,50.16
2019-03-21T03:21:02.038Z,50.08
2019-03-21T03:22:08.741Z,51.06
2019-03-21T03:23:15.731Z,51.05
2019-03-21T03:24:23.466Z,50.90
2019-03-21T03:25:30.099Z,51.28
2019-03-21T03:26:37.329Z,51.78
2019-03-21T03:27:43.270Z,51.59
2019-03-21T03:28:49.068Z,50.71
2019-03-21T03:29:55.190Z,50.87
2019-03-21T03:31:01.804Z,50.78
2019-03-21T03:32:08.709Z,51.45
2019-03-21T03:33:14.754Z,51.09
2019-03-21T03:34:20.513Z,51.01
2019-03-21T03:35:26.839Z,50.82
2019-03-21T03:36:34.054Z,52.02
2019-03-21T03:37:40.989Z,51.50
2019-03-21T03:38:47.856Z,51.51
2019-03-21T03:39:54.058Z,51.46
2019-03-21T03:41:01.094Z,50.89
2019-03-21T03:42:07.585Z,50.84
2019-03-21T03:43:14.373Z,50.69
2019-03-21T03:44:20.120Z,50.78
2019-03-21T03:45:37.519Z,50.57
2019-03-21T03:46:35.885Z,50.56
2019-03-21T03:47:42.430Z,50.69
2019-03-21T03:48:49.058Z,51.97
2019-03-21T03:49:55.234Z,51.67
2019-03-21T03:51:02.181Z,51.23
2019-03-21T03:52:07.698Z,51.14
2019-03-21T03:53:13.783Z,51.17
2019-03-21T03:54:20.320Z,51.26
2019-03-21T03:55:27.165Z,50.81
2019-03-21T03:56:34.054Z,51.55
2019-03-21T03:57:40.392Z,51.65
2019-03-21T03:58:47.440Z,51.06
2019-03-21T03:59:54.829Z,51.56
2019-03-21T04:01:00.996Z,50.92
2019-03-21T04:02:06.804Z,51.70
2019-03-21T04:03:13.190Z,51.22
2019-03-21T04:04:19.541Z,50.66
2019-03-21T04:05:26.205Z,51.33
2019-03-21T04:06:32.235Z,51.82
2019-03-21T04:07:38.594Z,50.89
2019-03-21T04:08:45.983Z,51.32
2019-03-21T04:09:52.372Z,51.27
2019-03-21T04:10:58.470Z,50.86
2019-03-21T04:12:05.833Z,51.37
2019-03-21T04:13:12.678Z,51.58
2019-03-21T04:14:19.032Z,50.71
2019-03-21T04:15:25.663Z,50.93
2019-03-21T04:16:33.373Z,51.74
2019-03-21T04:17:39.978Z,51.37
2019-03-21T04:18:46.026Z,51.04
2019-03-21T04:19:51.803Z,51.33
2019-03-21T04:20:58.522Z,51.01
2019-03-21T04:22:05.113Z,51.10
2019-03-21T04:23:10.965Z,50.96
2019-03-21T04:24:17.399Z,50.70
2019-03-21T04:25:27.127Z,51.27
2019-03-21T04:26:33.134Z,51.36
2019-03-21T04:27:39.704Z,51.93
2019-03-21T04:28:45.861Z,51.91
2019-03-21T04:29:52.757Z,50.96
2019-03-21T04:30:59.706Z,51.39
2019-03-21T04:32:06.241Z,51.62
2019-03-21T04:33:12.296Z,51.63
2019-03-21T04:34:18.871Z,51.27
2019-03-21T04:35:25.483Z,51.25
2019-03-21T04:36:31.270Z,51.11
2019-03-21T04:37:39.065Z,51.24
2019-03-21T04:38:45.448Z,50.85
2019-03-21T04:39:52.557Z,50.65
2019-03-21T04:40:59.386Z,51.46
2019-03-21T04:42:05.179Z,51.06
2019-03-21T04:43:11.081Z,50.93
2019-03-21T04:44:17.638Z,51.78
2019-03-21T04:45:23.428Z,51.33
2019-03-21T04:46:30.313Z,51.86
2019-03-21T04:47:36.353Z,51.72
2019-03-21T04:48:42.638Z,51.00
2019-03-21T04:49:48.526Z,51.47
2019-03-21T04:50:55.543Z,51.79
2019-03-21T04:52:01.604Z,51.33
2019-03-21T04:53:07.617Z,51.39
2019-03-21T04:54:14.221Z,51.13
2019-03-21T04:55:20.059Z,51.63
2019-03-21T04:56:26.024Z,51.09
2019-03-21T04:57:32.283Z,51.10
2019-03-21T04:58:38.089Z,51.20
2019-03-21T04:59:44.920Z,51.40
2019-03-21T05:00:51.154Z,51.42
2019-03-21T05:02:01.251Z,51.47
2019-03-21T05:03:07.843Z,52.16
2019-03-21T05:04:15.178Z,52.23
2019-03-21T05:05:22.083Z,51.42
2019-03-21T05:06:29.627Z,51.69
2019-03-21T05:07:36.512Z,51.25
2019-03-21T05:08:42.949Z,51.31
2019-03-21T05:09:50.352Z,51.30
2019-03-21T05:10:56.136Z,52.06
2019-03-21T05:12:03.155Z,51.36
2019-03-21T05:13:09.584Z,51.68
2019-03-21T05:14:16.942Z,51.10
2019-03-21T05:15:31.777Z,50.88
2019-03-21T05:16:37.556Z,51.41
2019-03-21T05:17:43.342Z,51.23
2019-03-21T05:18:49.532Z,51.16
2019-03-21T05:19:56.152Z,51.88
2019-03-21T05:21:02.400Z,51.69
2019-03-21T05:22:08.452Z,52.23
2019-03-21T05:23:14.254Z,52.00
2019-03-21T05:24:20.032Z,52.36
2019-03-21T05:25:26.626Z,51.82
2019-03-21T05:26:33.444Z,52.28
2019-03-21T05:27:39.495Z,52.48
2019-03-21T05:28:46.406Z,52.26
2019-03-21T05:29:55.276Z,51.63
2019-03-21T05:31:04.472Z,52.66
2019-03-21T05:32:10.806Z,52.08
2019-03-21T05:33:16.893Z,52.31
2019-03-21T05:34:23.175Z,52.14
2019-03-21T05:35:29.486Z,52.08
2019-03-21T05:36:36.386Z,52.01
2019-03-21T05:37:42.697Z,52.11
2019-03-21T05:38:49.588Z,52.20
2019-03-21T05:39:57.029Z,51.96
2019-03-21T05:41:03.069Z,51.98
2019-03-21T05:42:12.876Z,52.19
2019-03-21T05:43:21.982Z,51.44
2019-03-21T05:44:32.116Z,51.44
2019-03-21T05:45:39.226Z,52.15
2019-03-21T05:46:45.324Z,51.51
2019-03-21T05:47:51.740Z,52.22
2019-03-21T05:48:58.495Z,53.07
2019-03-21T05:50:05.213Z,52.03
2019-03-21T05:51:12.105Z,52.78
2019-03-21T05:52:18.682Z,52.56
2019-03-21T05:53:24.809Z,52.30
2019-03-21T05:54:31.344Z,52.40
2019-03-21T05:55:37.646Z,52.38
2019-03-21T05:56:44.512Z,51.60
2019-03-21T05:57:50.573Z,53.12
2019-03-21T05:58:57.919Z,53.06
2019-03-21T06:00:05.033Z,52.01
2019-03-21T06:01:11.073Z,51.64
2019-03-21T06:02:17.592Z,50.94
2019-03-21T06:03:29.211Z,51.14
2019-03-21T06:04:35.244Z,51.10
2019-03-21T06:05:42.038Z,51.23
2019-03-21T06:07:11.210Z,51.63
2019-03-21T06:08:27.307Z,51.07
2019-03-21T06:09:34.778Z,51.46
2019-03-21T06:10:41.073Z,51.19
2019-03-21T06:11:50.270Z,51.04
2019-03-21T06:12:56.609Z,51.00
2019-03-21T06:14:02.388Z,50.86
2019-03-21T06:15:08.356Z,50.83
2019-03-21T06:16:14.426Z,51.03
2019-03-21T06:17:20.197Z,50.78
2019-03-21T06:18:46.925Z,51.07
2019-03-21T06:20:24.168Z,51.67
2019-03-21T06:21:34.423Z,51.20
2019-03-21T06:23:15.260Z,50.70
2019-03-21T06:25:06.687Z,50.67
2019-03-21T06:26:38.018Z,50.09
2019-03-21T06:27:44.065Z,51.66
2019-03-21T06:28:51.366Z,50.85
2019-03-21T06:29:57.677Z,51.75
2019-03-21T06:31:04.429Z,50.30
2019-03-21T06:32:12.926Z,50.76
2019-03-21T06:33:18.835Z,50.95
2019-03-21T06:34:25.789Z,50.13
2019-03-21T06:35:32.750Z,50.12
2019-03-21T06:36:39.474Z,50.96
2019-03-21T06:37:45.558Z,50.28
2019-03-21T06:38:53.239Z,50.06
2019-03-21T06:40:00.423Z,49.71
2019-03-21T06:41:07.423Z,49.86
2019-03-21T06:42:13.496Z,50.16
2019-03-21T06:43:20.843Z,50.20
2019-03-21T06:44:28.320Z,49.87
2019-03-21T06:45:35.052Z,49.78
2019-03-21T06:46:48.957Z,49.91
2019-03-21T06:47:49.007Z,50.39
2019-03-21T06:48:55.515Z,50.06
2019-03-21T06:50:02.082Z,50.56
2019-03-21T06:51:08.211Z,49.77
2019-03-21T06:52:18.124Z,50.14
2019-03-21T06:53:24.411Z,49.80
2019-03-21T06:54:30.995Z,49.15
2019-03-21T06:55:37.719Z,49.33
2019-03-21T06:56:44.888Z,49.42
2019-03-21T06:57:52.105Z,48.87
2019-03-21T06:58:57.800Z,48.14
2019-03-21T07:00:03.580Z,48.95
2019-03-21T07:01:10.758Z,48.20
2019-03-21T07:02:16.246Z,48.30
2019-03-21T07:03:22.657Z,48.08
2019-03-21T07:04:28.741Z,47.43
2019-03-21T07:05:35.701Z,47.60
2019-03-21T07:06:42.446Z,47.31
2019-03-21T07:07:48.480Z,47.64
2019-03-21T07:08:55.111Z,46.88
2019-03-21T07:10:02.008Z,45.61
2019-03-21T07:11:08.339Z,45.64
2019-03-21T07:12:14.364Z,45.23
2019-03-21T07:13:21.719Z,44.96
2019-03-21T07:14:27.642Z,44.22
2019-03-21T07:15:33.438Z,45.40
2019-03-21T07:16:39.582Z,44.19
2019-03-21T07:17:47.088Z,43.99
2019-03-21T07:18:52.949Z,44.01
2019-03-21T07:19:59.547Z,45.28
2019-03-21T07:21:05.966Z,43.33
2019-03-21T07:22:12.462Z,44.45
2019-03-21T07:23:19.241Z,44.46
2019-03-21T07:24:26.830Z,43.85
2019-03-21T07:25:33.960Z,44.22
2019-03-21T07:26:40.045Z,43.85
2019-03-21T07:27:46.108Z,43.26
2019-03-21T07:28:52.434Z,42.51
2019-03-21T07:29:58.816Z,42.36
2019-03-21T07:31:05.444Z,42.20
2019-03-21T07:32:13.103Z,43.02
2019-03-21T07:33:19.246Z,41.48
2019-03-21T07:34:24.824Z,41.73
2019-03-21T07:35:33.582Z,40.19
2019-03-21T07:36:40.313Z,40.79
2019-03-21T07:37:46.930Z,41.26
2019-03-21T07:38:54.694Z,40.19
2019-03-21T07:40:01.213Z,39.42
2019-03-21T07:41:08.109Z,39.37
2019-03-21T07:42:14.546Z,40.24
2019-03-21T07:43:22.275Z,41.20
2019-03-21T07:44:29.396Z,39.61
2019-03-21T07:45:35.187Z,40.15
2019-03-21T07:46:41.378Z,39.63
2019-03-21T07:47:46.934Z,40.29
2019-03-21T07:48:53.423Z,39.14
2019-03-21T07:50:00.469Z,38.55
2019-03-21T07:51:07.842Z,38.57
2019-03-21T07:52:14.686Z,39.01
2019-03-21T07:53:22.146Z,39.63
2019-03-21T07:54:29.021Z,39.56
2019-03-21T07:55:35.430Z,37.83
2019-03-21T07:56:41.496Z,37.50
2019-03-21T07:57:48.334Z,37.46
2019-03-21T07:58:54.359Z,37.11
2019-03-21T08:00:02.376Z,36.70
2019-03-21T08:01:08.154Z,35.94
2019-03-21T08:02:14.996Z,35.37
2019-03-21T08:03:23.097Z,35.24
2019-03-21T08:04:28.945Z,35.08
2019-03-21T08:05:40.381Z,34.95
2019-03-21T08:06:42.397Z,35.22
2019-03-21T08:07:48.458Z,35.76
2019-03-21T08:08:55.473Z,36.25
2019-03-21T08:10:01.436Z,34.93
2019-03-21T08:11:07.235Z,35.93
2019-03-21T08:12:13.964Z,36.87
2019-03-21T08:13:21.401Z,34.65
2019-03-21T08:14:28.615Z,35.75
2019-03-21T08:15:34.379Z,36.00
2019-03-21T08:16:41.406Z,35.85
2019-03-21T08:17:47.170Z,35.33
2019-03-21T08:18:53.299Z,34.52
2019-03-21T08:20:00.322Z,34.34
2019-03-21T08:21:07.853Z,34.13
2019-03-21T08:22:14.682Z,34.11
2019-03-21T08:23:20.799Z,34.24
2019-03-21T08:24:27.431Z,34.62
2019-03-21T08:25:33.588Z,34.58
2019-03-21T08:26:39.216Z,31.68
2019-03-21T08:27:44.999Z,30.05
2019-03-21T08:28:51.453Z,27.85
2019-03-21T08:29:57.795Z,25.45
2019-03-21T08:31:23.155Z,23.14
2019-03-21T08:32:29.311Z,21.25
2019-03-21T08:33:36.264Z,19.71
2019-03-21T08:34:42.063Z,19.59
2019-03-21T08:35:49.678Z,19.12
2019-03-21T08:36:56.187Z,19.12
2019-03-21T08:38:02.051Z,18.14
2019-03-21T08:39:10.268Z,17.64
2019-03-21T08:40:16.738Z,16.69
2019-03-21T08:41:22.853Z,19.22
2019-03-21T08:42:30.321Z,20.11
2019-03-21T08:43:36.644Z,18.17
2019-03-21T08:44:43.023Z,15.52
2019-03-21T08:45:49.106Z,15.87
2019-03-21T08:46:55.213Z,16.11
2019-03-21T08:48:01.458Z,15.96
2019-03-21T08:49:07.516Z,16.44
2019-03-21T08:50:13.629Z,16.18
2019-03-21T08:51:19.834Z,16.06
2019-03-21T08:52:25.968Z,15.26
2019-03-21T08:53:32.065Z,17.81
2019-03-21T08:54:39.076Z,16.27
2019-03-21T08:55:44.873Z,15.54
2019-03-21T08:56:50.907Z,15.68
2019-03-21T08:57:57.297Z,16.91
2019-03-21T08:59:04.125Z,16.08
2019-03-21T09:00:09.915Z,16.67
2019-03-21T09:01:15.507Z,16.57
2019-03-21T09:02:21.633Z,16.26
2019-03-21T09:03:28.322Z,16.74
2019-03-21T09:04:34.628Z,15.34
2019-03-21T09:05:41.008Z,15.45
2019-03-21T09:06:47.078Z,14.48
2019-03-21T09:07:53.368Z,13.80
2019-03-21T09:08:59.683Z,13.61
2019-03-21T09:10:07.908Z,13.37
2019-03-21T09:11:14.437Z,13.63
2019-03-21T09:12:20.477Z,14.32
2019-03-21T09:13:26.235Z,13.70
2019-03-21T09:14:32.458Z,13.38
2019-03-21T09:15:38.261Z,13.23
2019-03-21T09:16:45.201Z,12.92
2019-03-21T09:17:51.267Z,12.37
2019-03-21T09:18:58.286Z,12.71
2019-03-21T09:20:05.387Z,14.32
2019-03-21T09:21:19.523Z,12.31
2019-03-21T09:22:19.226Z,13.52
2019-03-21T09:23:24.990Z,12.43
2019-03-21T09:24:31.584Z,12.24
2019-03-21T09:25:38.604Z,12.21
2019-03-21T09:26:44.609Z,12.79
2019-03-21T09:28:01.972Z,11.72
2019-03-21T09:28:59.075Z,12.31
2019-03-21T09:30:06.431Z,10.83
2019-03-21T09:31:12.539Z,11.68
2019-03-21T09:32:18.686Z,11.72
2019-03-21T09:33:24.845Z,11.56
2019-03-21T09:34:30.359Z,12.50
2019-03-21T09:35:35.851Z,11.78
2019-03-21T09:36:41.921Z,11.52
2019-03-21T09:37:47.429Z,11.47
2019-03-21T09:38:53.847Z,10.81
2019-03-21T09:39:59.646Z,11.50
2019-03-21T09:41:05.558Z,13.02
2019-03-21T09:42:11.896Z,12.29
2019-03-21T09:43:18.057Z,11.31
2019-03-21T09:44:24.293Z,12.78
2019-03-21T09:45:30.609Z,11.30
2019-03-21T09:46:36.123Z,11.90
2019-03-21T09:47:42.162Z,12.82
2019-03-21T09:48:49.089Z,11.55
2019-03-21T09:49:55.286Z,11.03
2019-03-21T09:51:01.484Z,11.57
2019-03-21T09:52:07.270Z,12.56
2019-03-21T09:53:14.606Z,12.14
2019-03-21T09:54:21.871Z,12.30
2019-03-21T09:55:28.497Z,11.98
2019-03-21T09:56:34.516Z,11.27
2019-03-21T09:57:40.745Z,12.19
2019-03-21T09:58:47.541Z,11.28
2019-03-21T09:59:54.117Z,10.39
2019-03-21T10:01:00.856Z,10.34
2019-03-21T10:02:06.663Z,11.26
2019-03-21T10:03:12.445Z,11.80
2019-03-21T10:04:19.089Z,14.04
2019-03-21T10:05:24.799Z,15.27
2019-03-21T10:06:30.598Z,17.02
2019-03-21T10:07:36.397Z,18.42
2019-03-21T10:08:43.236Z,18.89
2019-03-21T10:09:49.944Z,20.10
2019-03-21T10:10:56.546Z,22.12
2019-03-21T10:12:02.314Z,22.43
2019-03-21T10:13:07.870Z,22.26
2019-03-21T10:14:13.647Z,22.69
2019-03-21T10:15:19.616Z,23.73
2019-03-21T10:16:26.450Z,24.11
2019-03-21T10:17:31.877Z,23.32
2019-03-21T10:18:38.508Z,24.87
2019-03-21T10:19:44.365Z,24.11
2019-03-21T10:20:50.421Z,24.34
2019-03-21T10:21:57.079Z,24.07
2019-03-21T10:23:03.879Z,24.68
2019-03-21T10:24:10.783Z,24.24
2019-03-21T10:25:16.824Z,24.62
2019-03-21T10:26:22.608Z,24.19
2019-03-21T10:27:29.420Z,25.05
2019-03-21T10:28:36.065Z,24.16
2019-03-21T10:29:42.914Z,24.62
2019-03-21T10:30:48.955Z,25.12
2019-03-21T10:31:55.296Z,24.78
2019-03-21T10:33:01.799Z,24.42
2019-03-21T10:34:08.554Z,24.05
2019-03-21T10:35:14.902Z,24.24
2019-03-21T10:36:21.188Z,24.44
2019-03-21T10:37:27.748Z,24.19
2019-03-21T10:38:33.505Z,24.10
2019-03-21T10:39:40.093Z,25.09
2019-03-21T10:40:46.422Z,24.07
2019-03-21T10:41:53.789Z,23.83
2019-03-21T10:43:00.490Z,24.36
2019-03-21T10:44:06.359Z,24.21
2019-03-21T10:45:12.107Z,24.49
2019-03-21T10:46:18.222Z,24.44
2019-03-21T10:47:24.422Z,24.55
2019-03-21T10:48:30.386Z,24.15
2019-03-21T10:49:36.718Z,24.05
2019-03-21T10:50:43.396Z,24.71
2019-03-21T10:51:55.111Z,24.75
2019-03-21T10:52:58.589Z,24.80
2019-03-21T10:54:05.226Z,24.04
2019-03-21T10:55:11.325Z,23.63
2019-03-21T10:56:17.731Z,23.52
2019-03-21T10:57:24.475Z,24.46
2019-03-21T10:58:30.561Z,23.74
2019-03-21T10:59:38.437Z,24.26
2019-03-21T11:00:44.214Z,24.03
2019-03-21T11:01:49.708Z,23.96
2019-03-21T11:02:59.379Z,24.02
2019-03-21T11:04:04.917Z,24.46
2019-03-21T11:05:10.434Z,24.41
2019-03-21T11:06:17.041Z,24.46
2019-03-21T11:07:20.175Z,25.34
2019-03-21T11:08:27.162Z,24.73
2019-03-21T11:09:33.046Z,24.37
2019-03-21T11:10:40.148Z,23.98
2019-03-21T11:11:45.664Z,23.60
2019-03-21T11:12:52.526Z,23.59
2019-03-21T11:13:59.177Z,23.62
2019-03-21T11:15:05.039Z,23.29
2019-03-21T11:16:11.621Z,23.87
2019-03-21T11:17:18.465Z,23.93
2019-03-21T11:18:35.787Z,24.10
2019-03-21T11:19:33.154Z,23.96
2019-03-21T11:20:40.372Z,23.86
2019-03-21T11:21:47.369Z,24.77
2019-03-21T11:22:55.785Z,24.12
2019-03-21T11:24:01.990Z,23.80
2019-03-21T11:25:08.120Z,23.51
2019-03-21T11:26:13.954Z,23.06
2019-03-21T11:27:20.837Z,23.06
2019-03-21T11:28:26.877Z,23.21
2019-03-21T11:29:32.907Z,23.20
2019-03-21T11:30:43.279Z,23.43
2019-03-21T11:31:50.900Z,23.35
2019-03-21T11:32:57.554Z,23.23
2019-03-21T11:34:03.599Z,22.83
2019-03-21T11:35:09.661Z,23.09
2019-03-21T11:36:15.782Z,23.06
2019-03-21T11:37:21.606Z,22.71
2019-03-21T11:38:28.827Z,23.06
2019-03-21T11:39:34.601Z,23.14
2019-03-21T11:40:40.398Z,22.91
2019-03-21T11:41:46.173Z,22.97
2019-03-21T11:42:51.682Z,22.43
2019-03-21T11:43:58.073Z,22.94
2019-03-21T11:45:03.887Z,22.75
2019-03-21T11:46:09.910Z,22.51
2019-03-21T11:47:15.688Z,22.37
2019-03-21T11:48:22.496Z,22.67
2019-03-21T11:49:28.079Z,22.85
2019-03-21T11:50:34.987Z,22.26
2019-03-21T11:51:43.369Z,22.48
2019-03-21T11:52:50.526Z,21.90
2019-03-21T11:53:57.570Z,19.61
2019-03-21T11:55:04.407Z,16.50
2019-03-21T11:56:13.078Z,13.88
2019-03-21T11:57:19.276Z,12.40
2019-03-21T11:58:24.988Z,11.41
2019-03-21T11:59:41.604Z,11.33
2019-03-21T12:00:43.741Z,10.58
2019-03-21T12:01:49.607Z,9.96
2019-03-21T12:02:57.278Z,10.20
2019-03-21T12:04:03.399Z,9.82
2019-03-21T12:05:09.325Z,10.11
2019-03-21T12:06:15.448Z,9.59
2019-03-21T12:07:21.907Z,10.83
2019-03-21T12:08:28.987Z,9.87
2019-03-21T12:09:35.643Z,9.29
2019-03-21T12:10:42.610Z,8.88
2019-03-21T12:11:48.631Z,8.68
2019-03-21T12:12:55.456Z,8.51
2019-03-21T12:14:02.027Z,10.01
2019-03-21T12:15:08.162Z,10.65
2019-03-21T12:16:13.919Z,10.31
2019-03-21T12:17:21.350Z,10.00
2019-03-21T12:18:27.271Z,8.99
2019-03-21T12:19:33.836Z,8.88
2019-03-21T12:20:39.602Z,9.05
2019-03-21T12:21:46.437Z,8.69
2019-03-21T12:22:52.274Z,8.64
2019-03-21T12:23:59.422Z,8.69
2019-03-21T12:25:05.965Z,8.65
2019-03-21T12:26:11.924Z,8.70
2019-03-21T12:27:18.304Z,9.03
2019-03-21T12:28:24.639Z,8.99
2019-03-21T12:29:30.368Z,9.62
2019-03-21T12:30:41.001Z,9.46
2019-03-21T12:31:46.908Z,9.36
2019-03-21T12:32:53.741Z,10.08
2019-03-21T12:34:00.208Z,10.12
2019-03-21T12:35:07.181Z,11.07
2019-03-21T12:36:14.489Z,11.65
2019-03-21T12:37:20.551Z,12.35
2019-03-21T12:38:26.064Z,13.09
2019-03-21T12:39:31.945Z,14.07
2019-03-21T12:40:38.886Z,15.13
2019-03-21T12:41:44.392Z,15.28
2019-03-21T12:42:50.728Z,16.54
2019-03-21T12:43:56.494Z,16.83
2019-03-21T12:45:03.316Z,18.18
2019-03-21T12:46:09.319Z,18.14
2019-03-21T12:47:15.433Z,18.96
2019-03-21T12:48:22.079Z,18.90
2019-03-21T12:49:28.103Z,19.63
2019-03-21T12:50:34.185Z,19.07
2019-03-21T12:51:41.214Z,19.13
2019-03-21T12:52:47.267Z,19.67
2019-03-21T12:53:53.606Z,19.53
2019-03-21T12:54:59.702Z,20.01
2019-03-21T12:56:05.768Z,20.12
2019-03-21T12:57:11.509Z,19.98
2019-03-21T12:58:17.263Z,20.31
2019-03-21T12:59:24.089Z,20.72
2019-03-21T13:00:46.007Z,20.84
2019-03-21T13:01:52.853Z,21.01
2019-03-21T13:02:58.613Z,20.72
2019-03-21T13:04:04.148Z,21.83
2019-03-21T13:05:11.535Z,21.66
2019-03-21T13:06:18.361Z,22.08
2019-03-21T13:07:24.501Z,22.33
2019-03-21T13:08:34.106Z,21.54
2019-03-21T13:09:38.271Z,21.95
2019-03-21T13:10:45.487Z,21.51
2019-03-21T13:11:51.294Z,21.20
2019-03-21T13:12:57.272Z,21.11
2019-03-21T13:14:03.434Z,21.75
2019-03-21T13:15:09.555Z,22.65
2019-03-21T13:16:16.129Z,21.83
2019-03-21T13:17:22.182Z,21.67
2019-03-21T13:18:28.209Z,21.14
2019-03-21T13:19:34.868Z,21.21
2019-03-21T13:20:40.892Z,21.53
2019-03-21T13:21:47.136Z,21.93
2019-03-21T13:22:54.042Z,21.83
2019-03-21T13:24:00.107Z,22.55
2019-03-21T13:25:05.942Z,22.93
2019-03-21T13:26:12.009Z,22.56
2019-03-21T13:27:17.749Z,22.08
2019-03-21T13:28:25.438Z,21.90
2019-03-21T13:29:32.378Z,22.13
2019-03-21T13:30:38.537Z,21.91
2019-03-21T13:31:44.921Z,22.22
2019-03-21T13:32:52.613Z,23.02
2019-03-21T13:34:00.477Z,22.50
2019-03-21T13:35:06.566Z,23.03
2019-03-21T13:36:12.555Z,22.33
2019-03-21T13:37:19.441Z,23.03
2019-03-21T13:38:26.420Z,23.63
2019-03-21T13:39:32.964Z,23.74
2019-03-21T13:40:39.610Z,23.15
2019-03-21T13:41:46.559Z,23.56
2019-03-21T13:42:52.331Z,23.17
2019-03-21T13:43:58.731Z,23.39
2019-03-21T13:45:04.266Z,23.92
2019-03-21T13:46:10.308Z,23.57
2019-03-21T13:47:16.144Z,23.96
2019-03-21T13:48:22.709Z,23.83
2019-03-21T13:49:29.303Z,23.39
2019-03-21T13:50:35.443Z,24.11
2019-03-21T13:51:41.544Z,23.87
2019-03-21T13:52:47.915Z,23.69
2019-03-21T13:53:54.218Z,24.09
2019-03-21T13:55:00.499Z,23.77
2019-03-21T13:56:08.251Z,23.43
2019-03-21T13:57:14.970Z,24.00
2019-03-21T13:58:21.316Z,23.96
2019-03-21T13:59:27.368Z,24.37
2019-03-21T14:00:33.470Z,24.36
2019-03-21T14:01:39.801Z,23.79
2019-03-21T14:02:46.609Z,23.81
2019-03-21T14:03:52.830Z,24.02
2019-03-21T14:04:58.997Z,23.87
2019-03-21T14:06:06.011Z,23.61
2019-03-21T14:07:12.040Z,23.65
2019-03-21T14:08:18.088Z,23.06
2019-03-21T14:09:24.798Z,23.76
2019-03-21T14:10:32.428Z,23.88
2019-03-21T14:11:38.601Z,23.61
2019-03-21T14:12:44.798Z,23.52
2019-03-21T14:13:51.372Z,24.01
2019-03-21T14:15:01.200Z,23.88
2019-03-21T14:16:06.966Z,24.23
2019-03-21T14:17:21.553Z,24.53
2019-03-21T14:18:22.456Z,24.30
2019-03-21T14:19:28.478Z,24.29
2019-03-21T14:20:34.571Z,24.47
2019-03-21T14:21:40.081Z,24.17
2019-03-21T14:22:45.875Z,24.22
2019-03-21T14:23:52.402Z,24.08